Quick Links (Output Below):   Max & Min Temps   /   Climate Reports   /   Zone Forecasts
River Forecasts   /   Forestry Forecasts   /   Aviation Forecasts   /   Radars   /   Features

Terminal Aerodrome Forecast (Texarkana)

Pick a Site:
Arkadelphia | El Dorado | Fayetteville | Fort Smith | Harrison | Highfill | Hot Springs | Jonesboro
Little Rock | Monticello | Mountain Home | Pine Bluff | Texarkana
 Forecast 

KTXK 021653Z 0217/0312 28007KT P6SM VCTS BKN030CB BKN080
     FM021800 19010G16KT P6SM VCTS BKN040CB
     FM030000 17005KT P6SM SKC
      TEMPO 0310/0312 BKN015=


 Latest METARs (Observations) 
How to Decode METARs
NO CURRENT OBSERVATIONS

***** Today's Observations (Above) *****


17Z KTXK 021653Z 30006KT 10SM SCT029 31/23 A3008 RMK AO2 RAB42E51
         SLP179 P0000 T03110233
         
16Z KTXK 021553Z 26007KT 10SM BKN024 OVC038 31/23 A3008 RMK AO2 SLP179
         T03060233
         
15Z KTXK 021453Z 23008KT 10SM SCT019 BKN028 28/23 A3004 RMK AO2 SLP166
         T02830233 51022
         
14Z KTXK 021353Z VRB05KT 10SM BKN013 OVC020 27/24 A3003 RMK AO2 SLP162
         T02670239
         
13Z KTXK 021253Z 18005KT 10SM FEW011 26/24 A2999 RMK AO2 SLP149
         T02560239
         
12Z KTXK 021153Z 18006KT 10SM FEW016 25/24 A2997 RMK AO2 SLP143
         T02500239 10261 20250 53007
         
11Z KTXK 021053Z 19006KT 10SM BKN014 25/24 A2996 RMK AO2 SLP140
         T02500239 $
         
10Z KTXK 020953Z AUTO 20006KT 10SM BKN010 26/24 A2995 RMK AO2 SLP136
         T02560244 $
         
09Z KTXK 020853Z AUTO 18008KT 10SM CLR 25/24 A2992 RMK AO2 SLP125
         T02500244 56012 $
         
08Z KTXK 020753Z AUTO 19009KT 10SM CLR 26/24 A2992 RMK AO2 SLP126
         T02560239 $
         
***** Yesterday's Observations (Above) *****


Back to Main Page
http://www.srh.noaa.gov/lzk/qfcst.php

USA.gov is the U.S. government's official web portal to all federal, state and local government web resources and services.